createdAt,value
2018-05-11T00:00:44.319Z,13.85
2018-05-11T00:03:12.327Z,13.77
2018-05-11T00:05:40.094Z,13.71
2018-05-11T00:08:07.960Z,13.69
2018-05-11T00:10:35.722Z,13.66
2018-05-11T00:13:03.384Z,13.73
2018-05-11T00:15:31.151Z,13.81
2018-05-11T00:17:58.912Z,13.87
2018-05-11T00:20:26.673Z,13.96
2018-05-11T00:22:54.486Z,13.93
2018-05-11T00:25:22.309Z,13.98
2018-05-11T00:27:50.175Z,14.00
2018-05-11T00:30:17.885Z,14.00
2018-05-11T00:32:45.703Z,13.97
2018-05-11T00:35:13.419Z,14.02
2018-05-11T00:37:41.131Z,14.07
2018-05-11T00:40:08.872Z,14.06
2018-05-11T00:42:36.620Z,14.03
2018-05-11T00:45:04.320Z,14.04
2018-05-11T00:47:31.981Z,14.00
2018-05-11T00:49:59.697Z,14.06
2018-05-11T00:52:27.462Z,14.09
2018-05-11T00:54:55.275Z,13.99
2018-05-11T00:57:23.145Z,13.97
2018-05-11T00:59:50.910Z,13.92
2018-05-11T01:02:18.776Z,13.92
2018-05-11T01:04:46.541Z,13.89
2018-05-11T01:07:14.613Z,13.86
2018-05-11T01:09:42.479Z,13.68
2018-05-11T01:12:10.652Z,13.62
2018-05-11T01:14:38.522Z,13.62
2018-05-11T01:17:06.391Z,13.46
2018-05-11T01:19:34.341Z,13.30
2018-05-11T01:22:02.134Z,13.17
2018-05-11T01:24:30.026Z,13.11
2018-05-11T01:26:58.066Z,13.12
2018-05-11T01:29:25.885Z,13.06
2018-05-11T01:31:53.593Z,13.05
2018-05-11T01:34:21.440Z,13.06
2018-05-11T01:36:49.408Z,13.11
2018-05-11T01:39:17.190Z,13.02
2018-05-11T01:41:44.892Z,13.09
2018-05-11T01:44:12.619Z,13.12
2018-05-11T01:46:40.326Z,13.14
2018-05-11T01:49:08.352Z,13.04
2018-05-11T01:51:36.120Z,13.01
2018-05-11T01:54:03.978Z,13.05
2018-05-11T01:56:31.748Z,13.10
2018-05-11T01:58:59.466Z,13.08
2018-05-11T02:01:27.288Z,13.07
2018-05-11T02:03:55.145Z,13.06
2018-05-11T02:06:22.906Z,12.93
2018-05-11T02:08:50.569Z,12.80
2018-05-11T02:11:18.289Z,12.87
2018-05-11T02:13:46.102Z,12.81
2018-05-11T02:16:13.863Z,12.87
2018-05-11T02:18:41.756Z,12.75
2018-05-11T02:21:09.492Z,12.80
2018-05-11T02:23:38.025Z,12.79
2018-05-11T02:26:05.846Z,12.70
2018-05-11T02:28:33.607Z,12.74
2018-05-11T02:31:01.475Z,12.72
2018-05-11T02:33:29.447Z,12.74
2018-05-11T02:35:57.315Z,12.72
2018-05-11T02:38:25.280Z,12.67
2018-05-11T02:40:53.046Z,12.62
2018-05-11T02:43:20.782Z,12.65
2018-05-11T02:45:48.576Z,12.61
2018-05-11T02:48:16.369Z,12.59
2018-05-11T02:50:44.164Z,12.54
2018-05-11T02:53:11.970Z,12.54
2018-05-11T02:55:39.736Z,12.60
2018-05-11T02:58:07.601Z,12.45
2018-05-11T03:00:35.323Z,12.46
2018-05-11T03:03:03.102Z,12.54
2018-05-11T03:05:30.795Z,12.46
2018-05-11T03:07:58.662Z,12.38
2018-05-11T03:10:26.421Z,12.41
2018-05-11T03:12:54.181Z,12.38
2018-05-11T03:15:22.007Z,12.38
2018-05-11T03:17:49.722Z,12.44
2018-05-11T03:20:17.376Z,12.44
2018-05-11T03:22:45.255Z,12.33
2018-05-11T03:25:13.009Z,12.29
2018-05-11T03:27:40.670Z,12.29
2018-05-11T03:30:08.396Z,12.26
2018-05-11T03:32:36.272Z,12.20
2018-05-11T03:35:04.175Z,12.14
2018-05-11T03:37:32.041Z,12.03
2018-05-11T03:40:00.011Z,11.98
2018-05-11T03:42:27.828Z,11.92
2018-05-11T03:44:55.637Z,11.98
2018-05-11T03:47:23.512Z,11.81
2018-05-11T03:49:51.169Z,11.89
2018-05-11T03:52:18.827Z,11.94
2018-05-11T03:54:46.493Z,11.93
2018-05-11T03:57:14.326Z,12.00
2018-05-11T03:59:42.009Z,11.96
2018-05-11T04:02:21.354Z,11.95
2018-05-11T04:05:00.900Z,11.93
2018-05-11T04:07:40.538Z,11.94
2018-05-11T04:10:08.301Z,11.89
2018-05-11T04:12:36.029Z,11.86
2018-05-11T04:15:04.753Z,11.83
2018-05-11T04:17:32.459Z,11.82
2018-05-11T04:20:00.282Z,11.98
2018-05-11T04:22:28.046Z,11.98
2018-05-11T04:24:55.814Z,12.14
2018-05-11T04:27:23.523Z,12.13
2018-05-11T04:29:51.237Z,12.24
2018-05-11T04:32:18.907Z,12.30
2018-05-11T04:34:46.767Z,12.38
2018-05-11T04:37:14.546Z,12.50
2018-05-11T04:39:42.398Z,12.69
2018-05-11T04:42:10.122Z,12.81
2018-05-11T04:44:37.928Z,13.02
2018-05-11T04:47:05.757Z,13.08
2018-05-11T04:49:33.447Z,13.21
2018-05-11T04:52:01.288Z,13.20
2018-05-11T04:54:29.155Z,13.29
2018-05-11T04:56:57.159Z,13.35
2018-05-11T04:59:25.014Z,13.50
2018-05-11T05:01:53.077Z,13.58
2018-05-11T05:04:20.874Z,13.68
2018-05-11T05:06:48.589Z,13.62
2018-05-11T05:09:16.395Z,13.66
2018-05-11T05:11:44.772Z,13.76
2018-05-11T05:14:12.637Z,13.76
2018-05-11T05:16:40.298Z,13.74
2018-05-11T05:19:08.188Z,13.91
2018-05-11T05:21:36.135Z,13.43
2018-05-11T05:24:03.898Z,13.50
2018-05-11T05:26:31.664Z,13.52
2018-05-11T05:28:59.633Z,13.46
2018-05-11T05:31:27.352Z,13.48
2018-05-11T05:33:55.169Z,13.68
2018-05-11T05:36:22.927Z,13.85
2018-05-11T05:38:50.693Z,14.02
2018-05-11T05:41:18.456Z,13.88
2018-05-11T05:43:46.220Z,13.98
2018-05-11T05:46:13.882Z,13.82
2018-05-11T05:48:41.648Z,14.13
2018-05-11T05:51:09.417Z,14.72
2018-05-11T05:53:37.292Z,16.59
2018-05-11T05:56:04.996Z,16.26
2018-05-11T05:58:32.871Z,16.23
2018-05-11T06:01:00.572Z,16.37
2018-05-11T06:03:28.295Z,16.21
2018-05-11T06:05:56.102Z,16.19
2018-05-11T06:08:23.863Z,16.02
2018-05-11T06:10:51.748Z,15.79
2018-05-11T06:13:19.600Z,15.93
2018-05-11T06:15:47.570Z,16.28
2018-05-11T06:18:15.232Z,16.69
2018-05-11T06:20:43.100Z,17.02
2018-05-11T06:23:10.862Z,17.13
2018-05-11T06:25:38.671Z,17.61
2018-05-11T06:28:06.598Z,18.32
2018-05-11T06:30:34.355Z,18.56
2018-05-11T06:33:02.072Z,17.99
2018-05-11T06:35:29.786Z,17.36
2018-05-11T06:37:57.551Z,18.30
2018-05-11T06:40:25.424Z,18.80
2018-05-11T06:42:53.080Z,19.38
2018-05-11T06:45:20.742Z,19.68
2018-05-11T06:47:48.508Z,19.95
2018-05-11T06:50:16.264Z,21.20
2018-05-11T06:52:44.037Z,21.06
2018-05-11T06:55:11.792Z,20.27
2018-05-11T06:57:39.543Z,22.13
2018-05-11T07:00:07.337Z,23.03
2018-05-11T07:02:35.048Z,24.37
2018-05-11T07:05:02.856Z,23.05
2018-05-11T07:07:30.627Z,23.85
2018-05-11T07:09:58.488Z,22.19
2018-05-11T07:12:26.216Z,22.60
2018-05-11T07:14:53.913Z,22.46
2018-05-11T07:17:21.671Z,23.66
2018-05-11T07:19:49.449Z,23.45
2018-05-11T07:22:17.099Z,24.10
2018-05-11T07:24:44.870Z,24.33
2018-05-11T07:27:12.531Z,23.91
2018-05-11T07:29:40.359Z,24.57
2018-05-11T07:32:08.090Z,23.24
2018-05-11T07:34:35.919Z,21.68
2018-05-11T07:37:03.689Z,21.96
2018-05-11T07:39:31.405Z,21.70
2018-05-11T07:41:59.118Z,21.17
2018-05-11T07:44:26.985Z,21.57
2018-05-11T07:46:54.752Z,20.73
2018-05-11T07:49:22.620Z,20.29
2018-05-11T07:51:50.337Z,21.15
2018-05-11T07:54:18.146Z,21.75
2018-05-11T07:56:45.916Z,21.25
2018-05-11T07:59:13.675Z,21.09
2018-05-11T08:01:41.439Z,21.22
2018-05-11T08:04:09.307Z,20.40
2018-05-11T08:06:37.064Z,20.19
2018-05-11T08:09:04.981Z,20.34
2018-05-11T08:11:32.908Z,19.97
2018-05-11T08:14:00.564Z,19.05
2018-05-11T08:16:28.380Z,19.11
2018-05-11T08:18:56.093Z,20.16
2018-05-11T08:21:23.855Z,19.99
2018-05-11T08:23:51.581Z,20.49
2018-05-11T08:26:19.393Z,19.68
2018-05-11T08:28:47.114Z,19.93
2018-05-11T08:31:14.921Z,20.13
2018-05-11T08:33:42.686Z,19.90
2018-05-11T08:36:10.451Z,20.17
2018-05-11T08:38:38.217Z,19.90
2018-05-11T08:41:05.984Z,19.15
2018-05-11T08:43:33.849Z,19.00
2018-05-11T08:46:01.820Z,19.15
2018-05-11T08:48:29.673Z,19.82
2018-05-11T08:50:57.452Z,19.98
2018-05-11T08:53:25.219Z,20.25
2018-05-11T08:55:53.290Z,20.02
2018-05-11T08:58:21.156Z,20.65
2018-05-11T09:00:49.126Z,21.60
2018-05-11T09:03:16.850Z,21.88
2018-05-11T09:05:44.649Z,20.50
2018-05-11T09:08:12.363Z,20.85
2018-05-11T09:10:40.084Z,20.25
2018-05-11T09:13:07.842Z,20.28
2018-05-11T09:15:35.660Z,20.01
2018-05-11T09:18:03.379Z,20.07
2018-05-11T09:20:31.195Z,20.75
2018-05-11T09:22:58.898Z,21.27
2018-05-11T09:25:26.724Z,21.14
2018-05-11T09:27:54.531Z,21.55
2018-05-11T09:30:22.294Z,20.74
2018-05-11T09:32:50.005Z,21.33
2018-05-11T09:35:17.926Z,21.52
2018-05-11T09:37:45.640Z,21.51
2018-05-11T09:40:13.555Z,22.14
2018-05-11T09:42:41.322Z,21.69
2018-05-11T09:45:09.188Z,21.49
2018-05-11T09:47:37.058Z,21.91
2018-05-11T09:50:04.872Z,21.30
2018-05-11T09:52:32.687Z,20.95
2018-05-11T09:55:00.485Z,21.33
2018-05-11T09:57:28.216Z,20.80
2018-05-11T09:59:55.982Z,21.44
2018-05-11T10:02:23.746Z,22.66
2018-05-11T10:04:51.513Z,22.61
2018-05-11T10:07:19.274Z,22.63
2018-05-11T10:09:47.141Z,21.58
2018-05-11T10:12:15.972Z,21.72
2018-05-11T10:14:43.797Z,22.51
2018-05-11T10:17:11.509Z,22.85
2018-05-11T10:19:39.223Z,22.50
2018-05-11T10:22:06.873Z,22.43
2018-05-11T10:24:34.753Z,22.33
2018-05-11T10:27:02.411Z,22.57
2018-05-11T10:29:30.218Z,21.76
2018-05-11T10:31:58.509Z,22.05
2018-05-11T10:34:26.459Z,21.75
2018-05-11T10:36:54.187Z,22.58
2018-05-11T10:39:21.849Z,21.85
2018-05-11T10:41:49.615Z,22.63
2018-05-11T10:44:17.324Z,21.91
2018-05-11T10:46:45.151Z,22.35
2018-05-11T10:49:12.804Z,22.11
2018-05-11T10:51:40.670Z,21.96
2018-05-11T10:54:08.335Z,22.78
2018-05-11T10:56:36.153Z,22.64
2018-05-11T10:59:03.969Z,22.95
2018-05-11T11:01:31.784Z,23.24
2018-05-11T11:03:59.492Z,23.68
2018-05-11T11:06:27.260Z,22.54
2018-05-11T11:08:54.917Z,22.21
2018-05-11T11:11:22.690Z,22.57
2018-05-11T11:13:50.520Z,23.70
2018-05-11T11:16:18.320Z,24.18
2018-05-11T11:18:46.084Z,23.68
2018-05-11T11:21:13.948Z,23.12
2018-05-11T11:23:41.715Z,22.65
2018-05-11T11:26:09.479Z,22.13
2018-05-11T11:28:38.061Z,22.46
2018-05-11T11:31:05.930Z,22.53
2018-05-11T11:33:33.797Z,23.83
2018-05-11T11:36:01.663Z,23.61
2018-05-11T11:38:29.389Z,24.16
2018-05-11T11:40:57.293Z,22.90
2018-05-11T11:43:25.008Z,23.07
2018-05-11T11:45:52.926Z,23.15
2018-05-11T11:48:20.690Z,21.48
2018-05-11T11:50:48.455Z,21.84
2018-05-11T11:53:16.219Z,21.46
2018-05-11T11:55:43.936Z,21.67
2018-05-11T11:58:11.749Z,21.57
2018-05-11T12:00:39.570Z,22.47
2018-05-11T12:03:07.379Z,23.96
2018-05-11T12:05:35.143Z,23.41
2018-05-11T12:08:02.846Z,23.40
2018-05-11T12:10:30.672Z,22.87
2018-05-11T12:12:58.381Z,22.77
2018-05-11T12:15:26.099Z,23.47
2018-05-11T12:17:53.863Z,23.97
2018-05-11T12:20:21.628Z,23.40
2018-05-11T12:22:49.494Z,21.71
2018-05-11T12:25:17.265Z,20.92
2018-05-11T12:27:45.024Z,20.91
2018-05-11T12:30:12.784Z,22.34
2018-05-11T12:32:40.516Z,23.17
2018-05-11T12:35:08.317Z,24.58
2018-05-11T12:37:36.024Z,25.39
2018-05-11T12:40:03.792Z,24.38
2018-05-11T12:42:31.508Z,23.23
2018-05-11T12:45:00.196Z,22.94
2018-05-11T12:47:28.061Z,22.20
2018-05-11T12:49:55.827Z,22.90
2018-05-11T12:52:23.558Z,23.29
2018-05-11T12:54:51.254Z,23.15
2018-05-11T12:57:19.110Z,24.59
2018-05-11T12:59:46.885Z,23.07
2018-05-11T13:02:14.750Z,22.44
2018-05-11T13:04:42.722Z,21.67
2018-05-11T13:07:10.747Z,21.25
2018-05-11T13:09:38.663Z,21.38
2018-05-11T13:12:06.424Z,21.18
2018-05-11T13:14:34.178Z,21.57
2018-05-11T13:17:01.860Z,22.30
2018-05-11T13:19:29.511Z,22.30
2018-05-11T13:21:57.331Z,21.78
2018-05-11T13:24:25.146Z,21.35
2018-05-11T13:26:52.908Z,21.81
2018-05-11T13:29:20.632Z,22.53
2018-05-11T13:31:48.437Z,22.51
2018-05-11T13:34:16.183Z,22.19
2018-05-11T13:36:44.033Z,22.29
2018-05-11T13:39:11.823Z,22.32
2018-05-11T13:41:39.600Z,22.32
2018-05-11T13:44:07.364Z,22.74
2018-05-11T13:46:35.231Z,22.10
2018-05-11T13:49:02.942Z,22.18
2018-05-11T13:51:30.711Z,22.33
2018-05-11T13:53:58.629Z,22.42
2018-05-11T13:56:26.508Z,21.97
2018-05-11T13:58:54.359Z,21.50
2018-05-11T14:01:22.227Z,21.45
2018-05-11T14:03:49.990Z,21.33
2018-05-11T14:06:17.752Z,21.70
2018-05-11T14:08:45.475Z,21.92
2018-05-11T14:11:13.284Z,22.57
2018-05-11T14:13:40.947Z,21.87
2018-05-11T14:16:08.712Z,21.88
2018-05-11T14:18:36.475Z,22.05
2018-05-11T14:21:04.287Z,21.72
2018-05-11T14:23:32.107Z,21.49
2018-05-11T14:25:59.872Z,21.84
2018-05-11T14:28:27.634Z,21.40
2018-05-11T14:30:55.399Z,21.62
2018-05-11T14:33:23.120Z,21.62
2018-05-11T14:35:50.825Z,21.95
2018-05-11T14:38:18.529Z,22.04
2018-05-11T14:40:46.356Z,21.96
2018-05-11T14:43:14.119Z,22.15
2018-05-11T14:45:41.987Z,22.34
2018-05-11T14:48:09.697Z,22.28
2018-05-11T14:50:37.514Z,21.96
2018-05-11T14:53:05.281Z,22.32
2018-05-11T14:55:33.047Z,22.20
2018-05-11T14:58:00.914Z,21.52
2018-05-11T15:00:28.630Z,21.66
2018-05-11T15:02:56.446Z,21.66
2018-05-11T15:05:24.162Z,21.40
2018-05-11T15:07:51.969Z,21.44
2018-05-11T15:10:19.737Z,21.63
2018-05-11T15:12:47.605Z,21.22
2018-05-11T15:15:15.307Z,21.07
2018-05-11T15:17:43.128Z,21.02
2018-05-11T15:20:10.845Z,21.21
2018-05-11T15:22:38.657Z,21.46
2018-05-11T15:25:06.315Z,21.60
2018-05-11T15:27:34.042Z,21.52
2018-05-11T15:30:01.850Z,21.75
2018-05-11T15:32:29.717Z,21.65
2018-05-11T15:34:57.443Z,21.55
2018-05-11T15:37:25.144Z,21.58
2018-05-11T15:39:52.853Z,21.55
2018-05-11T15:42:20.670Z,21.65
2018-05-11T15:44:48.441Z,21.85
2018-05-11T15:47:16.405Z,21.85
2018-05-11T15:49:44.219Z,21.98
2018-05-11T15:52:11.936Z,21.92
2018-05-11T15:54:39.799Z,21.62
2018-05-11T15:57:07.674Z,21.66
2018-05-11T15:59:35.328Z,21.87
2018-05-11T16:02:03.197Z,21.76
2018-05-11T16:04:30.857Z,21.60
2018-05-11T16:06:58.626Z,21.73
2018-05-11T16:09:26.391Z,21.87
2018-05-11T16:11:54.257Z,21.60
2018-05-11T16:14:21.988Z,21.66
2018-05-11T16:16:50.503Z,22.02
2018-05-11T16:19:18.267Z,22.09
2018-05-11T16:21:46.044Z,21.96
2018-05-11T16:24:13.797Z,22.11
2018-05-11T16:26:41.551Z,22.05
2018-05-11T16:29:09.324Z,21.90
2018-05-11T16:31:37.131Z,21.72
2018-05-11T16:34:04.956Z,21.51
2018-05-11T16:36:32.719Z,21.29
2018-05-11T16:39:00.430Z,21.60
2018-05-11T16:41:28.249Z,21.56
2018-05-11T16:43:55.966Z,21.49
2018-05-11T16:46:23.667Z,21.51
2018-05-11T16:48:51.439Z,21.50
2018-05-11T16:51:19.306Z,21.21
2018-05-11T16:53:47.030Z,21.36
2018-05-11T16:56:14.822Z,21.51
2018-05-11T16:58:42.602Z,21.50
2018-05-11T17:01:10.309Z,21.72
2018-05-11T17:03:38.020Z,22.04
2018-05-11T17:06:05.893Z,21.99
2018-05-11T17:08:33.610Z,21.54
2018-05-11T17:11:01.320Z,21.38
2018-05-11T17:13:28.980Z,21.50
2018-05-11T17:15:56.744Z,21.39
2018-05-11T17:18:24.454Z,21.21
2018-05-11T17:20:52.221Z,21.17
2018-05-11T17:23:20.250Z,21.13
2018-05-11T17:25:47.912Z,21.04
2018-05-11T17:28:15.877Z,21.20
2018-05-11T17:30:43.644Z,21.13
2018-05-11T17:33:11.507Z,21.30
2018-05-11T17:35:39.276Z,21.26
2018-05-11T17:38:07.089Z,21.31
2018-05-11T17:40:34.904Z,21.35
2018-05-11T17:43:02.770Z,21.20
2018-05-11T17:45:30.490Z,21.10
2018-05-11T17:47:58.300Z,21.26
2018-05-11T17:50:26.124Z,21.38
2018-05-11T17:52:54.033Z,21.43
2018-05-11T17:55:21.692Z,21.44
2018-05-11T17:57:49.351Z,21.40
2018-05-11T18:00:17.067Z,21.42
2018-05-11T18:02:44.883Z,21.39
2018-05-11T18:05:12.600Z,21.42
2018-05-11T18:07:40.365Z,21.66
2018-05-11T18:10:08.272Z,21.77
2018-05-11T18:12:36.047Z,21.83
2018-05-11T18:15:03.707Z,21.92
2018-05-11T18:17:31.534Z,21.85
2018-05-11T18:19:59.342Z,21.81
2018-05-11T18:22:27.168Z,21.81
2018-05-11T18:24:54.972Z,21.74
2018-05-11T18:27:22.736Z,21.52
2018-05-11T18:29:50.503Z,21.51
2018-05-11T18:32:18.369Z,21.49
2018-05-11T18:34:46.080Z,21.47
2018-05-11T18:37:14.000Z,21.32
2018-05-11T18:39:41.795Z,21.23
2018-05-11T18:42:09.481Z,21.09
2018-05-11T18:44:37.296Z,20.90
2018-05-11T18:47:05.188Z,20.75
2018-05-11T18:49:32.901Z,20.67
2018-05-11T18:52:00.721Z,20.55
2018-05-11T18:54:29.022Z,20.42
2018-05-11T18:56:56.479Z,20.29
2018-05-11T18:59:24.297Z,20.30
2018-05-11T19:01:52.157Z,20.21
2018-05-11T19:04:19.920Z,20.25
2018-05-11T19:06:47.787Z,20.20
2018-05-11T19:09:15.514Z,20.19
2018-05-11T19:11:43.255Z,20.10
2018-05-11T19:14:11.081Z,19.95
2018-05-11T19:16:38.948Z,20.01
2018-05-11T19:19:06.611Z,19.88
2018-05-11T19:21:34.375Z,19.90
2018-05-11T19:24:02.139Z,19.88
2018-05-11T19:26:29.905Z,19.81
2018-05-11T19:28:57.770Z,19.82
2018-05-11T19:31:25.497Z,19.76
2018-05-11T19:33:53.406Z,19.69
2018-05-11T19:36:21.125Z,19.65
2018-05-11T19:38:49.034Z,19.56
2018-05-11T19:41:16.759Z,19.50
2018-05-11T19:43:44.563Z,19.42
2018-05-11T19:46:12.328Z,19.56
2018-05-11T19:48:40.160Z,19.60
2018-05-11T19:51:07.962Z,19.57
2018-05-11T19:53:35.623Z,19.56
2018-05-11T19:56:03.664Z,19.53
2018-05-11T19:58:31.460Z,19.40
2018-05-11T20:00:59.300Z,19.36
2018-05-11T20:03:27.065Z,19.48
2018-05-11T20:05:54.860Z,19.51
2018-05-11T20:08:22.723Z,19.47
2018-05-11T20:10:50.474Z,19.46
2018-05-11T20:13:18.254Z,19.45
2018-05-11T20:15:46.013Z,19.40
2018-05-11T20:18:13.935Z,19.38
2018-05-11T20:20:41.747Z,19.39
2018-05-11T20:23:09.617Z,19.38
2018-05-11T20:25:37.340Z,19.30
2018-05-11T20:28:05.143Z,19.18
2018-05-11T20:30:32.908Z,19.14
2018-05-11T20:33:00.778Z,19.08
2018-05-11T20:35:28.485Z,19.06
2018-05-11T20:37:56.232Z,19.01
2018-05-11T20:40:23.966Z,18.91
2018-05-11T20:42:51.935Z,18.84
2018-05-11T20:45:19.670Z,18.82
2018-05-11T20:47:47.467Z,18.79
2018-05-11T20:50:15.338Z,18.76
2018-05-11T20:52:43.048Z,18.74
2018-05-11T20:55:10.860Z,18.70
2018-05-11T20:57:38.704Z,18.68
2018-05-11T21:00:06.493Z,18.68
2018-05-11T21:02:34.152Z,18.68
2018-05-11T21:05:01.984Z,18.68
2018-05-11T21:07:29.788Z,18.61
2018-05-11T21:09:57.550Z,18.48
2018-05-11T21:12:25.381Z,18.49
2018-05-11T21:14:53.184Z,18.43
2018-05-11T21:17:20.738Z,18.36
2018-05-11T21:19:48.401Z,18.27
2018-05-11T21:22:16.149Z,18.25
2018-05-11T21:24:43.936Z,18.23
2018-05-11T21:27:11.749Z,18.21
2018-05-11T21:29:39.562Z,18.05
2018-05-11T21:32:07.223Z,18.00
2018-05-11T21:34:34.991Z,17.96
2018-05-11T21:37:02.697Z,17.95
2018-05-11T21:39:30.415Z,17.83
2018-05-11T21:41:58.131Z,17.93
2018-05-11T21:44:25.952Z,17.93
2018-05-11T21:46:53.767Z,17.67
2018-05-11T21:49:21.579Z,17.77
2018-05-11T21:51:49.301Z,17.75
2018-05-11T21:54:17.151Z,17.82
2018-05-11T21:56:44.976Z,17.81
2018-05-11T21:59:12.702Z,17.68
2018-05-11T22:01:40.494Z,17.58
2018-05-11T22:04:08.169Z,17.50
2018-05-11T22:06:36.033Z,17.47
2018-05-11T22:09:03.789Z,17.45
2018-05-11T22:11:31.536Z,17.35
2018-05-11T22:13:59.333Z,17.38
2018-05-11T22:16:27.189Z,17.40
2018-05-11T22:18:54.914Z,17.42
2018-05-11T22:21:22.721Z,17.38
2018-05-11T22:23:50.444Z,17.35
2018-05-11T22:26:18.354Z,17.38
2018-05-11T22:28:46.222Z,17.30
2018-05-11T22:31:14.045Z,17.34
2018-05-11T22:33:41.853Z,17.31
2018-05-11T22:36:09.615Z,17.29
2018-05-11T22:38:37.446Z,17.30
2018-05-11T22:41:05.114Z,17.24
2018-05-11T22:43:32.799Z,17.17
2018-05-11T22:46:00.570Z,17.01
2018-05-11T22:48:28.437Z,17.07
2018-05-11T22:50:56.093Z,17.09
2018-05-11T22:53:24.068Z,17.05
2018-05-11T22:55:51.728Z,17.04
2018-05-11T22:58:19.486Z,16.97
2018-05-11T23:00:47.196Z,16.90
2018-05-11T23:03:15.070Z,16.87
2018-05-11T23:05:42.955Z,16.83
2018-05-11T23:08:10.653Z,16.82
2018-05-11T23:10:38.394Z,16.80
2018-05-11T23:13:06.136Z,16.77
2018-05-11T23:15:33.948Z,16.72
2018-05-11T23:18:01.764Z,16.68
2018-05-11T23:20:29.579Z,16.69
2018-05-11T23:22:57.244Z,16.65
2018-05-11T23:25:24.894Z,16.62
2018-05-11T23:27:52.707Z,16.57
2018-05-11T23:30:20.432Z,16.54
2018-05-11T23:32:48.197Z,16.44
2018-05-11T23:35:16.119Z,16.36
2018-05-11T23:37:43.929Z,16.27
2018-05-11T23:40:11.739Z,16.27
2018-05-11T23:42:39.561Z,16.31
2018-05-11T23:45:07.327Z,16.29
2018-05-11T23:47:35.043Z,16.17
2018-05-11T23:50:02.855Z,16.19
2018-05-11T23:52:30.575Z,16.15
2018-05-11T23:54:58.283Z,16.20
2018-05-11T23:57:26.046Z,16.21
2018-05-11T23:59:53.811Z,16.19
